Time;durP1;ratioP1;P1;durP2;ratioP2;P2;SDS_P1;SDS_P2;PMS_P1;PMS_P2;Temp;Humidity;BMP_temperature;BMP_pressure;BME280_temperature;BME280_humidity;BME280_pressure;Samples;Min_cycle;Max_cycle;Signal;HPM_P1;HPM_P2
2022/03/10 00:00:20;;;;;;;23.95;14.68;;;9.00;99.90;;;;;;5016121;28;20127;-73
2022/03/10 00:02:46;;;;;;;15.95;10.73;;;9.00;99.90;;;;;;5015639;28;20033;-73
2022/03/10 00:05:15;;;;;;;12.30;9.40;;;8.90;99.90;;;;;;5015669;28;20052;-73
2022/03/10 00:07:41;;;;;;;13.95;8.88;;;8.90;99.90;;;;;;5015851;28;20050;-73
2022/03/10 00:10:08;;;;;;;13.52;9.13;;;8.90;99.90;;;;;;5015435;28;20042;-73
2022/03/10 00:12:34;;;;;;;14.93;9.57;;;8.90;99.90;;;;;;5015865;28;20037;-73
2022/03/10 00:15:01;;;;;;;19.35;10.30;;;9.00;99.90;;;;;;5015294;28;20038;-72
2022/03/10 00:17:27;;;;;;;19.42;12.50;;;9.00;99.90;;;;;;5015485;28;20152;-73
2022/03/10 00:19:53;;;;;;;14.65;12.63;;;9.00;99.90;;;;;;5015987;28;20081;-72
2022/03/10 00:22:19;;;;;;;20.25;10.13;;;8.90;99.90;;;;;;5015423;28;20042;-71
2022/03/10 00:24:44;;;;;;;16.98;10.30;;;8.90;99.90;;;;;;5015201;28;20109;-73
2022/03/10 00:27:10;;;;;;;14.18;9.57;;;9.00;99.40;;;;;;5015565;28;20045;-72
2022/03/10 00:29:36;;;;;;;16.77;11.13;;;8.90;99.90;;;;;;5016032;28;20046;-72
2022/03/10 00:32:02;;;;;;;15.85;10.32;;;8.90;99.90;;;;;;5016131;28;20038;-72
2022/03/10 00:34:30;;;;;;;16.88;12.25;;;8.90;99.90;;;;;;5015491;28;20038;-72
2022/03/10 00:36:56;;;;;;;21.45;13.18;;;8.90;99.90;;;;;;5015386;28;20124;-73
2022/03/10 00:39:21;;;;;;;19.08;12.75;;;8.90;99.90;;;;;;5014879;28;20116;-73
2022/03/10 00:41:47;;;;;;;19.80;12.20;;;8.90;99.90;;;;;;5015688;28;20037;-73
2022/03/10 00:44:13;;;;;;;14.15;10.27;;;8.90;99.90;;;;;;5015610;28;20050;-73
2022/03/10 00:46:39;;;;;;;15.57;10.45;;;8.90;99.90;;;;;;5015523;28;20050;-73
2022/03/10 00:49:04;;;;;;;15.82;9.88;;;8.90;99.90;;;;;;5015518;28;20484;-73
2022/03/10 00:51:30;;;;;;;17.63;9.43;;;8.90;99.90;;;;;;5015839;28;20037;-73
2022/03/10 00:53:56;;;;;;;15.00;9.38;;;8.90;99.90;;;;;;5015578;28;20168;-73
2022/03/10 00:56:22;;;;;;;15.55;9.57;;;8.90;99.90;;;;;;5015397;28;20046;-73
2022/03/10 00:58:48;;;;;;;15.82;9.73;;;8.90;99.90;;;;;;5015114;28;20073;-73
2022/03/10 01:01:13;;;;;;;15.48;10.27;;;8.90;99.90;;;;;;5015276;28;20037;-71
2022/03/10 01:03:39;;;;;;;12.45;9.35;;;8.90;99.90;;;;;;5015314;28;20080;-73
2022/03/10 01:06:05;;;;;;;11.80;8.70;;;8.90;99.00;;;;;;5015101;28;20045;-73
2022/03/10 01:08:31;;;;;;;19.42;10.13;;;9.00;97.50;;;;;;5015235;28;20184;-73
2022/03/10 01:10:57;;;;;;;27.73;16.88;;;8.90;99.90;;;;;;5014879;28;20044;-72
2022/03/10 01:13:23;;;;;;;27.55;17.88;;;9.00;99.20;;;;;;5015176;28;20505;-73
2022/03/10 01:15:49;;;;;;;48.25;28.38;;;9.10;85.70;;;;;;5015155;28;20120;-73
2022/03/10 01:18:15;;;;;;;17.55;10.88;;;9.10;95.10;;;;;;5015674;28;20487;-73
2022/03/10 01:20:42;;;;;;;16.70;9.35;;;9.00;91.50;;;;;;5014805;28;20045;-73
2022/03/10 01:23:10;;;;;;;13.35;8.50;;;9.10;80.60;;;;;;5015073;28;20046;-73
2022/03/10 01:25:36;;;;;;;12.65;8.55;;;9.10;92.50;;;;;;5014711;28;20034;-73
2022/03/10 01:28:02;;;;;;;13.13;9.48;;;9.10;92.10;;;;;;5015214;28;20056;-73
2022/03/10 01:30:28;;;;;;;13.20;9.40;;;9.00;97.90;;;;;;5014869;28;20033;-73
2022/03/10 01:32:53;;;;;;;13.80;9.23;;;9.10;99.90;;;;;;5014981;28;20136;-73
2022/03/10 01:35:19;;;;;;;11.60;9.48;;;9.00;99.90;;;;;;5014689;28;20065;-73
2022/03/10 01:37:45;;;;;;;10.82;7.22;;;9.00;99.90;;;;;;5014664;28;20047;-71
2022/03/10 01:40:14;;;;;;;10.52;7.85;;;9.00;89.20;;;;;;5014802;28;20065;-73
2022/03/10 01:42:40;;;;;;;14.88;8.85;;;9.00;90.70;;;;;;5014880;28;20038;-73
2022/03/10 01:45:07;;;;;;;12.82;8.57;;;9.00;94.20;;;;;;5014489;28;20076;-73
2022/03/10 01:47:32;;;;;;;12.80;8.52;;;9.00;99.10;;;;;;5014790;28;20132;-72
2022/03/10 01:49:58;;;;;;;13.20;7.60;;;9.00;93.00;;;;;;5014919;28;20568;-73
2022/03/10 01:52:24;;;;;;;10.57;7.15;;;9.10;76.90;;;;;;5014820;28;20044;-73
2022/03/10 01:54:50;;;;;;;13.43;7.85;;;9.10;61.20;;;;;;5014338;28;20048;-73
2022/03/10 01:57:17;;;;;;;14.77;8.45;;;9.20;66.00;;;;;;5014767;28;20061;-73
2022/03/10 01:59:43;;;;;;;12.70;8.25;;;9.20;66.60;;;;;;5014700;28;20049;-73
2022/03/10 02:02:09;;;;;;;13.50;7.38;;;9.20;65.70;;;;;;5014687;28;20046;-73
2022/03/10 02:04:35;;;;;;;15.77;7.72;;;9.10;76.30;;;;;;5014694;28;20049;-73
2022/03/10 02:07:03;;;;;;;12.85;7.65;;;9.10;86.90;;;;;;5014624;28;20042;-72
2022/03/10 02:12:14;;;;;;;10.68;6.80;;;9.20;58.60;;;;;;5014715;28;20032;-71
2022/03/10 02:17:28;;;;;;;13.98;8.25;;;9.10;83.10;;;;;;5014382;28;20037;-72
2022/03/10 02:19:56;;;;;;;10.65;7.18;;;9.10;92.50;;;;;;5014958;28;20046;-72
2022/03/10 02:22:23;;;;;;;11.77;7.63;;;9.10;87.10;;;;;;5014288;28;20044;-71
2022/03/10 02:24:50;;;;;;;9.63;7.30;;;9.00;92.90;;;;;;5014346;28;20129;-72
2022/03/10 02:27:24;;;;;;;12.65;7.43;;;9.10;84.80;;;;;;5014409;28;20046;-72
2022/03/10 02:29:55;;;;;;;11.40;6.93;;;9.10;84.60;;;;;;5014420;28;20070;-72
2022/03/10 02:32:22;;;;;;;11.82;6.82;;;9.10;84.50;;;;;;5014529;28;20034;-73
2022/03/10 02:34:49;;;;;;;11.38;7.40;;;9.10;80.30;;;;;;5014785;28;20519;-73
2022/03/10 02:37:16;;;;;;;10.25;6.30;;;9.10;80.80;;;;;;5015515;28;20037;-72
2022/03/10 02:39:43;;;;;;;10.90;6.82;;;9.10;86.70;;;;;;5017699;28;20053;-72
2022/03/10 02:42:10;;;;;;;11.95;6.28;;;9.10;82.70;;;;;;5017913;28;20037;-72
2022/03/10 02:44:41;;;;;;;9.57;6.43;;;9.20;60.80;;;;;;5017147;28;20121;-71
2022/03/10 02:47:07;;;;;;;12.40;6.57;;;9.20;56.10;;;;;;5017486;28;20131;-71
2022/03/10 02:49:33;;;;;;;11.10;6.47;;;9.20;55.40;;;;;;5017933;28;20049;-72
2022/03/10 02:52:00;;;;;;;9.60;6.38;;;9.20;54.20;;;;;;5017407;28;20042;-71
2022/03/10 02:54:26;;;;;;;8.77;5.80;;;9.20;55.80;;;;;;5017210;28;20049;-73
2022/03/10 02:56:52;;;;;;;10.10;6.55;;;9.20;59.20;;;;;;5017565;28;20041;-73
2022/03/10 02:59:18;;;;;;;8.75;6.43;;;9.20;66.40;;;;;;5017523;28;20034;-73
2022/03/10 03:01:43;;;;;;;11.30;6.72;;;9.20;64.10;;;;;;5016928;28;20038;-71
2022/03/10 03:04:09;;;;;;;11.27;6.15;;;9.20;65.70;;;;;;5016900;28;20511;-71
2022/03/10 03:06:35;;;;;;;8.43;6.85;;;9.20;61.70;;;;;;5017049;28;20046;-73
2022/03/10 03:09:01;;;;;;;10.48;6.28;;;9.20;66.60;;;;;;5016638;28;20108;-73
2022/03/10 03:11:27;;;;;;;13.40;6.82;;;9.20;68.20;;;;;;5017110;28;20030;-73
2022/03/10 03:13:52;;;;;;;9.77;6.22;;;9.10;70.40;;;;;;5016937;28;20042;-73
2022/03/10 03:16:18;;;;;;;10.30;6.03;;;9.20;62.20;;;;;;5016928;28;20564;-73
2022/03/10 03:18:44;;;;;;;12.32;6.07;;;9.20;64.00;;;;;;5017171;28;20424;-73
2022/03/10 03:21:10;;;;;;;10.90;6.05;;;9.20;58.60;;;;;;5016716;28;20077;-73
2022/03/10 03:23:36;;;;;;;9.60;6.63;;;9.30;57.50;;;;;;5017343;28;20046;-71
2022/03/10 03:26:01;;;;;;;9.57;7.22;;;9.30;43.20;;;;;;5016307;28;20564;-73
2022/03/10 03:28:27;;;;;;;10.77;7.88;;;9.30;45.90;;;;;;5016635;28;20145;-73
2022/03/10 03:30:53;;;;;;;10.98;7.55;;;9.30;26.00;;;;;;5016809;28;20125;-71
2022/03/10 03:33:19;;;;;;;10.13;7.03;;;9.40;21.60;;;;;;5016639;28;20129;-73
2022/03/10 03:35:45;;;;;;;16.30;8.07;;;9.40;24.40;;;;;;5016447;28;20084;-73
2022/03/10 03:38:13;;;;;;;13.10;7.70;;;9.40;26.10;;;;;;5016546;28;20524;-73
2022/03/10 03:40:40;;;;;;;12.55;7.60;;;9.40;22.50;;;;;;5016712;28;20129;-73
2022/03/10 03:43:06;;;;;;;12.48;7.55;;;9.40;27.00;;;;;;5016737;28;20129;-73
2022/03/10 03:45:32;;;;;;;11.32;7.45;;;9.40;32.30;;;;;;5016390;28;20073;-73
2022/03/10 03:47:58;;;;;;;13.07;8.45;;;9.40;29.70;;;;;;5016105;28;20033;-73
2022/03/10 03:50:24;;;;;;;14.60;8.30;;;9.40;33.60;;;;;;5016312;28;20042;-73
2022/03/10 03:52:50;;;;;;;13.40;8.70;;;9.40;31.10;;;;;;5015992;28;20523;-73
2022/03/10 03:55:16;;;;;;;15.05;9.05;;;9.40;30.60;;;;;;5016310;28;20432;-73
2022/03/10 03:57:41;;;;;;;13.63;8.70;;;9.40;37.00;;;;;;5016168;28;20046;-73
2022/03/10 04:00:10;;;;;;;14.32;7.85;;;9.30;37.90;;;;;;5016507;28;20038;-73
2022/03/10 04:02:37;;;;;;;12.18;8.32;;;9.30;43.70;;;;;;5015994;28;20044;-71
2022/03/10 04:05:04;;;;;;;14.20;8.05;;;9.30;47.90;;;;;;5016198;28;20041;-71
2022/03/10 04:07:29;;;;;;;13.15;8.48;;;9.30;55.00;;;;;;5015925;28;20157;-73
2022/03/10 04:09:55;;;;;;;17.85;8.63;;;9.30;59.40;;;;;;5016193;28;20116;-72
2022/03/10 04:12:21;;;;;;;14.95;8.65;;;9.20;74.20;;;;;;5015803;28;20042;-73
2022/03/10 04:14:47;;;;;;;13.68;8.02;;;9.20;66.90;;;;;;5015885;28;20048;-72
2022/03/10 04:17:13;;;;;;;16.80;8.68;;;9.20;69.90;;;;;;5015809;28;20111;-73
2022/03/10 04:19:39;;;;;;;12.10;8.52;;;9.20;76.20;;;;;;5015657;28;20044;-71
2022/03/10 04:22:04;;;;;;;12.68;9.02;;;9.20;88.30;;;;;;5015464;28;20042;-73
2022/03/10 04:24:30;;;;;;;15.82;10.13;;;9.30;69.20;;;;;;5015253;28;20421;-73
2022/03/10 04:26:56;;;;;;;13.05;8.73;;;9.30;67.80;;;;;;5015537;28;20053;-72
2022/03/10 04:29:22;;;;;;;13.00;8.95;;;9.30;70.90;;;;;;5015898;28;20523;-73
2022/03/10 04:31:48;;;;;;;12.77;9.20;;;9.30;77.50;;;;;;5015545;28;20033;-72
2022/03/10 04:34:14;;;;;;;13.00;9.50;;;9.30;73.20;;;;;;5015341;28;20069;-71
2022/03/10 04:36:40;;;;;;;16.25;10.23;;;9.30;76.60;;;;;;5015745;28;20131;-73
2022/03/10 04:39:06;;;;;;;19.90;9.93;;;9.30;72.00;;;;;;5015452;28;20188;-73
2022/03/10 04:41:34;;;;;;;13.63;10.05;;;9.30;76.90;;;;;;5015386;28;20081;-72
2022/03/10 04:44:00;;;;;;;16.70;10.00;;;9.30;71.00;;;;;;5015348;28;20033;-73
2022/03/10 04:46:26;;;;;;;15.90;10.75;;;9.40;66.10;;;;;;5015205;28;20062;-73
2022/03/10 04:48:52;;;;;;;17.88;9.95;;;9.40;62.10;;;;;;5015341;28;20034;-73
2022/03/10 04:51:19;;;;;;;16.63;9.90;;;9.30;71.20;;;;;;5014988;28;20046;-73
2022/03/10 04:53:45;;;;;;;16.30;9.98;;;9.30;75.20;;;;;;5015475;28;20493;-73
2022/03/10 04:56:10;;;;;;;18.75;11.25;;;9.30;71.90;;;;;;5015213;28;20041;-73
2022/03/10 04:58:36;;;;;;;15.93;12.13;;;9.30;68.60;;;;;;5015132;28;20040;-73
2022/03/10 05:01:02;;;;;;;20.08;11.05;;;9.40;67.50;;;;;;5014579;28;20053;-71
2022/03/10 05:03:28;;;;;;;18.23;11.63;;;9.30;68.80;;;;;;5015584;28;20044;-73
2022/03/10 05:05:54;;;;;;;15.25;11.40;;;9.40;56.40;;;;;;5014825;28;20045;-72
2022/03/10 05:08:19;;;;;;;18.80;11.50;;;9.40;57.40;;;;;;5014901;28;20038;-72
2022/03/10 05:10:45;;;;;;;14.80;10.85;;;9.40;44.50;;;;;;5014739;28;20080;-72
2022/03/10 05:13:11;;;;;;;15.52;11.25;;;9.40;47.10;;;;;;5014942;28;20037;-72
2022/03/10 05:15:37;;;;;;;16.02;11.27;;;9.40;46.90;;;;;;5014765;28;20083;-73
2022/03/10 05:18:04;;;;;;;15.00;10.65;;;9.40;42.30;;;;;;5014889;28;20041;-73
2022/03/10 05:20:31;;;;;;;18.17;11.40;;;9.40;37.40;;;;;;5390454;23;20136;-72
2022/03/10 05:22:59;;;;;;;13.60;10.45;;;9.40;47.50;;;;;;5034895;28;20037;-72
2022/03/10 05:25:32;;;;;;;15.38;11.18;;;9.40;52.00;;;;;;5034448;28;20033;-72
2022/03/10 05:27:58;;;;;;;14.93;10.93;;;9.40;56.20;;;;;;5032481;28;20072;-72
2022/03/10 05:32:59;;;;;;;12.43;10.85;;;9.40;56.40;;;;;;5156009;23;20425;-72
2022/03/10 05:35:29;;;;;;;13.55;10.85;;;9.40;64.30;;;;;;5014408;28;20471;-71
2022/03/10 05:37:55;;;;;;;15.60;10.73;;;9.40;59.30;;;;;;5004753;28;20062;-72
2022/03/10 05:40:22;;;;;;;16.73;10.25;;;9.40;60.20;;;;;;4995331;28;20038;-72
2022/03/10 05:42:50;;;;;;;15.43;10.27;;;9.40;60.90;;;;;;5007532;28;20071;-72
2022/03/10 05:45:22;;;;;;;13.30;10.23;;;9.40;66.20;;;;;;5011156;28;20042;-72
2022/03/10 05:47:56;;;;;;;16.27;10.18;;;9.40;67.40;;;;;;5006088;28;20054;-71
2022/03/10 05:50:24;;;;;;;16.25;10.27;;;9.40;68.70;;;;;;5014546;28;20033;-71
2022/03/10 05:52:50;;;;;;;15.88;10.57;;;9.40;70.40;;;;;;5002945;28;20041;-71
2022/03/10 05:55:17;;;;;;;13.70;9.90;;;9.40;74.10;;;;;;4995098;28;20045;-71
2022/03/10 05:57:43;;;;;;;15.52;9.73;;;9.40;68.20;;;;;;4996086;28;20476;-71
2022/03/10 06:00:10;;;;;;;14.27;10.13;;;9.40;68.10;;;;;;5013927;28;20097;-71
2022/03/10 06:02:37;;;;;;;11.32;9.23;;;9.40;70.40;;;;;;5013073;28;20045;-72
2022/03/10 06:05:04;;;;;;;14.77;9.77;;;9.40;68.70;;;;;;4995668;28;20042;-71
2022/03/10 06:07:31;;;;;;;13.25;9.25;;;9.40;70.00;;;;;;4999538;28;20136;-71
2022/03/10 06:09:57;;;;;;;13.68;9.23;;;9.40;70.10;;;;;;4997297;28;20049;-70
2022/03/10 06:12:27;;;;;;;15.60;9.75;;;9.40;82.10;;;;;;5012060;28;20450;-70
2022/03/10 06:15:00;;;;;;;15.18;9.63;;;9.40;74.40;;;;;;5007025;28;20151;-71
2022/03/10 06:17:27;;;;;;;14.60;8.90;;;9.40;74.10;;;;;;5008840;28;20053;-70
2022/03/10 06:19:53;;;;;;;13.10;8.52;;;9.40;80.40;;;;;;5017226;28;20036;-71
2022/03/10 06:22:21;;;;;;;14.40;8.98;;;9.40;78.10;;;;;;5017872;28;20076;-71
2022/03/10 06:24:47;;;;;;;13.75;8.93;;;9.40;76.30;;;;;;5018188;28;20496;-71
2022/03/10 06:27:14;;;;;;;15.57;9.02;;;9.40;68.20;;;;;;5017703;28;20221;-71
2022/03/10 06:29:41;;;;;;;13.32;8.40;;;9.50;60.90;;;;;;5017798;28;20038;-71
2022/03/10 06:32:08;;;;;;;12.43;8.65;;;9.50;62.60;;;;;;5017763;28;20532;-71
2022/03/10 06:34:37;;;;;;;12.63;7.68;;;9.50;57.60;;;;;;5017300;28;20050;-71
2022/03/10 06:37:04;;;;;;;12.70;7.78;;;9.50;55.30;;;;;;5017290;28;20065;-70
2022/03/10 06:39:30;;;;;;;12.57;7.93;;;9.50;57.90;;;;;;5017887;28;20423;-71
2022/03/10 06:41:56;;;;;;;10.85;7.15;;;9.50;53.00;;;;;;5017150;28;20129;-72
2022/03/10 06:44:21;;;;;;;14.32;8.13;;;9.50;54.10;;;;;;5017429;28;20042;-73
2022/03/10 06:46:47;;;;;;;9.88;7.10;;;9.50;55.70;;;;;;5016389;28;20038;-73
2022/03/10 06:49:13;;;;;;;14.52;7.43;;;9.50;54.30;;;;;;5016747;28;20057;-73
2022/03/10 06:51:39;;;;;;;12.32;7.40;;;9.50;43.20;;;;;;5017871;28;20037;-73
2022/03/10 06:54:05;;;;;;;14.77;7.80;;;9.60;51.20;;;;;;5017122;28;20041;-72
2022/03/10 06:56:31;;;;;;;10.15;7.28;;;9.50;43.80;;;;;;5016856;28;20037;-73
2022/03/10 06:58:57;;;;;;;10.85;7.43;;;9.60;43.50;;;;;;5017261;28;20038;-73
2022/03/10 07:01:23;;;;;;;9.88;6.68;;;9.50;43.00;;;;;;5017444;28;20109;-72
2022/03/10 07:03:48;;;;;;;14.45;7.22;;;9.60;37.90;;;;;;5016885;28;20069;-73
2022/03/10 07:06:14;;;;;;;11.73;7.10;;;9.60;38.00;;;;;;5016844;28;20034;-73
2022/03/10 07:08:40;;;;;;;10.18;7.20;;;9.60;40.30;;;;;;5016950;28;20539;-73
2022/03/10 07:11:06;;;;;;;10.15;6.95;;;9.60;44.50;;;;;;5017221;28;20424;-73
2022/03/10 07:13:34;;;;;;;9.27;6.78;;;9.70;44.30;;;;;;5017294;28;20132;-72
2022/03/10 07:16:00;;;;;;;9.43;6.03;;;9.70;32.70;;;;;;5016812;28;20104;-73
2022/03/10 07:18:25;;;;;;;10.98;6.60;;;9.80;40.20;;;;;;5017467;28;20416;-73
2022/03/10 07:20:51;;;;;;;10.25;6.70;;;9.80;34.90;;;;;;5016905;28;20045;-73
2022/03/10 07:23:17;;;;;;;8.80;6.70;;;9.80;27.40;;;;;;5016658;28;20050;-72
2022/03/10 07:25:43;;;;;;;6.72;6.03;;;9.80;33.30;;;;;;5016526;28;20034;-73
2022/03/10 07:28:10;;;;;;;10.73;5.90;;;9.90;19.20;;;;;;5016694;28;20124;-73
2022/03/10 07:30:36;;;;;;;8.27;6.20;;;9.90;23.60;;;;;;5016438;28;20576;-73
2022/03/10 07:33:02;;;;;;;9.48;5.40;;;9.90;25.70;;;;;;5016384;28;20050;-72
2022/03/10 07:35:28;;;;;;;9.10;6.07;;;9.90;24.50;;;;;;5016636;28;20384;-73
2022/03/10 07:37:56;;;;;;;9.63;5.55;;;10.00;23.80;;;;;;5016478;28;20042;-73
2022/03/10 07:40:22;;;;;;;10.07;5.60;;;9.90;14.70;;;;;;5017041;28;20034;-73
2022/03/10 07:42:48;;;;;;;9.73;5.93;;;9.90;19.20;;;;;;5016699;28;20038;-73
2022/03/10 07:45:14;;;;;;;9.45;5.22;;;9.80;20.80;;;;;;5016951;28;20046;-73
2022/03/10 07:47:39;;;;;;;9.05;5.88;;;9.90;23.80;;;;;;5015874;28;20400;-73
2022/03/10 07:50:06;;;;;;;11.60;5.68;;;9.80;21.20;;;;;;5016495;28;20108;-73
2022/03/10 07:52:33;;;;;;;9.38;5.32;;;9.90;22.60;;;;;;5016270;28;20048;-72
2022/03/10 07:54:59;;;;;;;10.85;5.50;;;10.00;15.20;;;;;;5016255;28;20042;-73
2022/03/10 07:57:25;;;;;;;12.75;5.55;;;10.10;7.80;;;;;;5015992;28;20048;-73
2022/03/10 07:59:52;;;;;;;10.25;4.70;;;10.20;5.90;;;;;;5015869;28;20121;-72
2022/03/10 08:02:18;;;;;;;10.55;5.50;;;10.30;1.60;;;;;;5015910;28;20041;-73
2022/03/10 08:04:44;;;;;;;6.53;4.97;;;10.40;1.00;;;;;;5016037;28;20045;-73
2022/03/10 08:07:10;;;;;;;9.38;5.35;;;10.50;1.00;;;;;;5015672;28;20049;-72
2022/03/10 08:09:37;;;;;;;9.18;5.15;;;10.70;1.00;;;;;;5015949;28;20049;-72
2022/03/10 08:12:03;;;;;;;9.00;5.47;;;10.90;1.00;;;;;;5016418;28;20038;-73
2022/03/10 08:14:29;;;;;;;8.65;5.35;;;10.90;1.00;;;;;;5015645;28;20037;-73
2022/03/10 08:16:55;;;;;;;10.98;5.57;;;10.80;1.00;;;;;;5015664;28;20542;-73
2022/03/10 08:19:21;;;;;;;9.30;5.30;;;10.60;1.00;;;;;;5015503;28;20034;-73
2022/03/10 08:21:48;;;;;;;9.80;5.57;;;10.40;1.00;;;;;;5015811;28;20037;-73
2022/03/10 08:24:14;;;;;;;6.40;5.15;;;10.40;1.00;;;;;;5015376;28;20034;-73
2022/03/10 08:26:40;;;;;;;10.07;5.45;;;10.30;1.00;;;;;;5015778;28;20044;-73
2022/03/10 08:29:06;;;;;;;9.40;5.70;;;10.20;1.00;;;;;;5015683;28;20041;-73
2022/03/10 08:31:32;;;;;;;12.43;5.50;;;10.10;1.00;;;;;;5015205;28;20111;-73
2022/03/10 08:33:58;;;;;;;29.52;21.70;;;10.00;1.00;;;;;;5016038;28;20037;-72
2022/03/10 08:36:24;;;;;;;12.00;7.55;;;10.00;1.00;;;;;;5015281;28;20042;-72
2022/03/10 08:38:50;;;;;;;7.55;5.30;;;10.00;1.00;;;;;;5015791;28;20381;-73
2022/03/10 08:41:16;;;;;;;7.45;5.40;;;10.10;1.60;;;;;;5016139;28;20096;-72
2022/03/10 08:43:42;;;;;;;12.50;6.38;;;10.30;1.00;;;;;;5015695;28;20037;-73
2022/03/10 08:46:08;;;;;;;13.13;5.72;;;10.40;1.00;;;;;;5015974;28;20128;-72
2022/03/10 08:48:34;;;;;;;11.15;6.07;;;10.30;1.00;;;;;;5015162;28;20049;-73
2022/03/10 08:51:04;;;;;;;9.77;6.13;;;10.40;1.00;;;;;;5015549;28;20037;-73
2022/03/10 08:53:31;;;;;;;6.95;5.53;;;10.60;1.00;;;;;;5016006;28;20056;-72
2022/03/10 08:55:57;;;;;;;12.80;5.97;;;10.90;1.00;;;;;;5015522;28;20038;-72
2022/03/10 08:58:24;;;;;;;8.63;5.65;;;11.00;1.00;;;;;;5015394;28;20044;-73
2022/03/10 09:00:50;;;;;;;8.32;5.07;;;10.90;1.00;;;;;;5015238;28;20061;-73
2022/03/10 09:03:16;;;;;;;7.32;5.65;;;10.80;1.00;;;;;;5015132;28;20041;-73
2022/03/10 09:05:42;;;;;;;8.90;5.60;;;10.70;1.00;;;;;;5015354;28;20389;-73
2022/03/10 09:08:09;;;;;;;10.10;5.70;;;10.60;1.00;;;;;;5015239;28;20073;-73
2022/03/10 09:10:35;;;;;;;10.77;5.63;;;10.50;1.00;;;;;;5015397;28;20049;-73
2022/03/10 09:13:01;;;;;;;9.35;5.57;;;10.40;1.00;;;;;;5014940;28;20392;-73
2022/03/10 09:15:27;;;;;;;7.50;4.95;;;10.40;2.50;;;;;;5015223;28;20033;-73
2022/03/10 09:17:53;;;;;;;6.68;5.97;;;10.30;5.10;;;;;;5015083;28;20088;-73
2022/03/10 09:20:21;;;;;;;14.10;5.38;;;10.20;2.80;;;;;;5015173;28;20042;-72
2022/03/10 09:22:47;;;;;;;10.98;5.95;;;10.30;7.50;;;;;;5014602;28;20317;-72
2022/03/10 09:25:13;;;;;;;7.53;6.20;;;10.40;1.00;;;;;;5014838;28;20042;-73
2022/03/10 09:27:40;;;;;;;8.68;6.57;;;10.60;1.00;;;;;;5014999;28;20042;-73
2022/03/10 09:30:08;;;;;;;8.63;6.80;;;10.60;1.00;;;;;;5014993;28;20129;-72
2022/03/10 09:32:39;;;;;;;9.88;6.65;;;10.50;1.00;;;;;;5014429;28;20064;-73
2022/03/10 09:35:07;;;;;;;11.95;7.35;;;10.30;8.00;;;;;;5014627;28;20038;-73
2022/03/10 09:37:33;;;;;;;10.82;6.82;;;10.30;8.90;;;;;;5014577;28;20046;-73
2022/03/10 09:39:59;;;;;;;8.27;6.63;;;10.20;8.90;;;;;;5014947;28;20037;-73
2022/03/10 09:42:30;;;;;;;11.73;6.72;;;10.20;18.80;;;;;;5014794;28;20041;-72
2022/03/10 09:45:07;;;;;;;10.55;6.88;;;10.10;24.80;;;;;;5014839;28;20026;-73
2022/03/10 09:47:35;;;;;;;11.25;6.45;;;10.10;27.40;;;;;;5017912;28;20041;-73
2022/03/10 09:50:04;;;;;;;10.38;6.40;;;10.00;44.20;;;;;;5001020;28;20404;-73
2022/03/10 09:52:31;;;;;;;9.23;6.43;;;9.90;69.80;;;;;;5018709;28;20038;-73
2022/03/10 09:54:58;;;;;;;10.05;6.20;;;9.80;82.70;;;;;;5018271;28;20065;-72
2022/03/10 09:57:25;;;;;;;9.52;6.88;;;9.90;79.60;;;;;;5018661;28;20050;-73
2022/03/10 09:59:58;;;;;;;8.88;7.43;;;10.10;72.90;;;;;;5018376;28;20472;-73
2022/03/10 10:02:26;;;;;;;13.32;6.93;;;10.20;51.30;;;;;;5018325;28;20049;-73
2022/03/10 10:04:52;;;;;;;10.57;7.53;;;10.20;54.10;;;;;;5018574;28;20030;-73
2022/03/10 10:07:24;;;;;;;11.52;7.43;;;10.10;86.60;;;;;;5018197;28;20051;-73
2022/03/10 10:09:57;;;;;;;9.98;7.32;;;10.00;90.40;;;;;;5018254;28;20038;-73
2022/03/10 10:12:28;;;;;;;8.75;6.90;;;10.10;92.90;;;;;;5018318;28;20049;-73
2022/03/10 10:14:55;;;;;;;8.60;6.55;;;10.20;91.30;;;;;;5018166;28;20048;-73
2022/03/10 10:17:30;;;;;;;10.40;7.22;;;10.10;71.20;;;;;;5018006;28;20092;-73
2022/03/10 10:19:58;;;;;;;8.98;7.70;;;10.10;79.60;;;;;;5018285;28;20034;-74
2022/03/10 10:22:25;;;;;;;11.60;7.30;;;10.20;90.10;;;;;;5018075;28;20053;-73
2022/03/10 10:24:54;;;;;;;8.05;7.07;;;10.30;44.80;;;;;;5018221;28;20481;-73
2022/03/10 10:27:22;;;;;;;11.05;7.13;;;10.60;30.60;;;;;;5017865;28;20046;-73
2022/03/10 10:29:56;;;;;;;9.45;6.88;;;11.10;8.70;;;;;;5017742;28;20065;-74
2022/03/10 10:32:33;;;;;;;10.23;7.07;;;11.50;1.00;;;;;;5017488;28;20111;-73
2022/03/10 10:35:06;;;;;;;12.38;7.90;;;11.60;1.00;;;;;;5017792;28;20049;-73
2022/03/10 10:37:33;;;;;;;9.30;6.70;;;11.30;1.00;;;;;;5018018;28;20042;-73
2022/03/10 10:39:59;;;;;;;10.63;6.97;;;11.10;1.00;;;;;;5017683;28;20377;-73
2022/03/10 10:42:30;;;;;;;8.63;7.70;;;11.00;1.00;;;;;;5017505;28;20056;-73
2022/03/10 10:44:58;;;;;;;9.40;7.32;;;10.70;31.20;;;;;;5017286;28;20095;-73
2022/03/10 10:47:26;;;;;;;13.38;7.72;;;10.50;38.30;;;;;;5017184;28;20096;-73
2022/03/10 10:50:05;;;;;;;9.75;7.15;;;10.30;86.50;;;;;;5017516;28;20042;-73
2022/03/10 10:52:41;;;;;;;12.57;6.65;;;10.60;35.30;;;;;;5017392;28;20049;-73
2022/03/10 10:55:13;;;;;;;10.32;6.78;;;11.20;6.80;;;;;;5017138;28;20127;-73
2022/03/10 10:57:39;;;;;;;10.80;6.25;;;12.00;1.00;;;;;;5016742;28;20049;-73
2022/03/10 11:00:08;;;;;;;8.48;6.18;;;12.40;1.00;;;;;;5017324;28;20095;-73
2022/03/10 11:02:36;;;;;;;7.47;6.15;;;12.40;1.00;;;;;;5016758;28;20042;-73
2022/03/10 11:05:03;;;;;;;11.07;7.68;;;11.80;1.00;;;;;;4999661;28;20439;-73
2022/03/10 11:07:31;;;;;;;12.88;7.90;;;11.40;1.00;;;;;;5017096;28;20085;-73
2022/03/10 11:09:57;;;;;;;12.35;7.95;;;11.20;1.00;;;;;;5017440;28;20053;-73
2022/03/10 11:12:23;;;;;;;15.27;8.93;;;11.40;1.00;;;;;;5017389;28;20041;-73
2022/03/10 11:14:49;;;;;;;11.32;6.60;;;12.10;1.00;;;;;;5016771;28;20045;-73
2022/03/10 11:17:17;;;;;;;7.93;6.22;;;12.70;1.00;;;;;;5016827;28;20136;-73
2022/03/10 11:19:48;;;;;;;10.98;6.05;;;13.10;1.00;;;;;;5016731;28;20041;-73
2022/03/10 11:22:40;;;;;;;9.25;5.95;;;12.80;1.00;;;;;;5016851;28;20499;-73
2022/03/10 11:25:12;;;;;;;12.88;7.25;;;12.60;1.00;;;;;;5016824;28;20046;-73
2022/03/10 11:27:52;;;;;;;9.07;6.65;;;12.10;1.00;;;;;;5016796;28;20049;-73
2022/03/10 11:30:22;;;;;;;8.88;6.10;;;11.90;1.00;;;;;;5016468;28;20046;-73
2022/03/10 11:33:13;;;;;;;8.65;5.88;;;12.00;1.00;;;;;;5017071;28;20050;-73
2022/03/10 11:35:44;;;;;;;8.63;6.00;;;12.20;1.00;;;;;;5017326;28;20037;-73
2022/03/10 11:38:11;;;;;;;9.73;6.85;;;12.00;1.00;;;;;;5016887;28;20050;-73
2022/03/10 11:40:57;;;;;;;10.25;5.93;;;11.70;1.00;;;;;;5017130;28;20038;-73
2022/03/10 11:43:26;;;;;;;11.77;6.28;;;11.50;1.00;;;;;;5016923;28;20042;-73
2022/03/10 11:46:12;;;;;;;10.77;5.88;;;11.50;1.00;;;;;;5016888;28;20038;-73
2022/03/10 11:48:38;;;;;;;13.38;5.35;;;11.60;1.00;;;;;;5016879;28;20041;-73
2022/03/10 11:51:12;;;;;;;10.82;5.88;;;11.40;1.00;;;;;;5016337;28;20077;-73
2022/03/10 11:53:58;;;;;;;8.43;6.18;;;11.30;1.00;;;;;;5016312;28;20052;-73
2022/03/10 11:56:42;;;;;;;9.93;5.97;;;11.30;1.00;;;;;;5016682;28;20113;-73
2022/03/10 11:59:24;;;;;;;9.25;6.07;;;11.40;1.00;;;;;;5016827;28;20040;-72
2022/03/10 12:01:51;;;;;;;9.45;6.03;;;11.60;1.00;;;;;;5016191;28;20042;-73
2022/03/10 12:04:20;;;;;;;8.23;5.78;;;11.60;1.00;;;;;;5016384;28;20037;-73
2022/03/10 12:06:56;;;;;;;10.93;5.70;;;11.40;1.00;;;;;;5015894;28;20500;-73
2022/03/10 12:09:26;;;;;;;10.77;5.57;;;11.40;1.00;;;;;;5015559;28;20096;-73
2022/03/10 12:11:52;;;;;;;8.70;5.45;;;11.70;1.00;;;;;;5015875;28;20038;-73
2022/03/10 12:14:31;;;;;;;9.15;5.18;;;11.90;1.00;;;;;;5016107;28;20037;-72
2022/03/10 12:16:58;;;;;;;10.10;6.38;;;12.40;1.00;;;;;;5016027;28;20123;-72
2022/03/10 12:20:01;;;;;;;11.43;5.53;;;12.30;1.00;;;;;;5015760;28;20041;-73
2022/03/10 12:22:30;;;;;;;10.38;5.18;;;12.10;1.00;;;;;;5016116;28;20061;-73
2022/03/10 12:25:21;;;;;;;8.63;4.53;;;11.80;1.00;;;;;;5015667;28;20045;-73
2022/03/10 12:27:54;;;;;;;6.70;4.82;;;11.70;1.00;;;;;;5016063;28;20069;-73
2022/03/10 12:30:24;;;;;;;9.60;5.30;;;11.90;1.00;;;;;;5016326;28;20115;-73
2022/03/10 12:32:52;;;;;;;8.27;5.07;;;12.10;1.00;;;;;;5015144;28;20188;-73
2022/03/10 12:35:22;;;;;;;7.43;4.30;;;12.20;1.00;;;;;;5015459;28;20264;-72
2022/03/10 12:37:49;;;;;;;8.05;4.00;;;12.30;1.00;;;;;;5015480;28;20045;-73
2022/03/10 12:40:23;;;;;;;7.15;5.03;;;12.60;1.00;;;;;;5015462;28;20037;-72
2022/03/10 12:42:49;;;;;;;7.82;3.92;;;12.70;1.00;;;;;;5015322;28;20068;-73
2022/03/10 12:45:20;;;;;;;9.10;4.63;;;13.00;1.00;;;;;;5015246;28;20041;-73
2022/03/10 12:47:53;;;;;;;6.25;3.92;;;12.70;1.00;;;;;;5015169;28;20042;-73
2022/03/10 12:50:19;;;;;;;10.90;4.03;;;12.20;1.00;;;;;;5015093;28;20033;-73
2022/03/10 12:52:45;;;;;;;8.20;3.97;;;12.00;1.00;;;;;;5015477;28;20044;-73
2022/03/10 12:55:11;;;;;;;7.93;4.38;;;10.20;1.00;;;;;;5015228;28;20117;-73
2022/03/10 12:57:38;;;;;;;7.00;3.53;;;12.20;1.00;;;;;;5014913;28;20408;-73